Time;durP1;ratioP1;P1;durP2;ratioP2;P2;SDS_P1;SDS_P2;PMS_P1;PMS_P2;Temp;Humidity;BMP_temperature;BMP_pressure;BME280_temperature;BME280_humidity;BME280_pressure;Samples;Min_cycle;Max_cycle;Signal;HPM_P1;HPM_P2
2024/01/09 00:00:37;;;;;;;5.47;3.07;;;-2.20;99.90;;;;;;5099649;28;20027;-36
2024/01/09 00:03:03;;;;;;;4.63;3.23;;;-2.20;99.90;;;;;;5098254;28;20035;-37
2024/01/09 00:05:28;;;;;;;4.83;3.23;;;-2.20;99.90;;;;;;5101418;28;20048;-37
2024/01/09 00:07:54;;;;;;;5.03;3.30;;;-2.20;99.90;;;;;;5101244;28;20508;-36
2024/01/09 00:10:19;;;;;;;5.47;3.40;;;-2.20;99.90;;;;;;5103279;28;20733;-35
2024/01/09 00:12:45;;;;;;;4.53;3.10;;;-2.30;99.90;;;;;;5102003;28;20031;-35
2024/01/09 00:15:11;;;;;;;4.07;3.40;;;-2.30;99.90;;;;;;5101714;28;20030;-36
2024/01/09 00:17:37;;;;;;;3.83;3.23;;;-2.30;99.90;;;;;;5101441;28;20090;-37
2024/01/09 00:20:02;;;;;;;5.50;3.17;;;-2.30;99.90;;;;;;5102055;28;20080;-36
2024/01/09 00:22:28;;;;;;;4.47;3.40;;;-2.30;99.90;;;;;;5101871;28;20035;-36
2024/01/09 00:24:54;;;;;;;4.07;2.93;;;-2.30;99.90;;;;;;5101856;28;20027;-36
2024/01/09 00:27:19;;;;;;;4.93;3.07;;;-2.40;99.90;;;;;;5102899;28;20036;-36
2024/01/09 00:29:45;;;;;;;4.03;2.97;;;-2.30;99.90;;;;;;5102143;28;20035;-36
2024/01/09 00:32:10;;;;;;;6.57;2.70;;;-2.40;99.90;;;;;;5101640;28;20028;-36
2024/01/09 00:34:36;;;;;;;4.00;3.00;;;-2.40;99.90;;;;;;5102555;28;20995;-36
2024/01/09 00:37:02;;;;;;;4.13;2.80;;;-2.40;99.90;;;;;;5101442;28;20031;-36
2024/01/09 00:39:27;;;;;;;4.73;3.10;;;-2.40;99.90;;;;;;5100407;28;20103;-36
2024/01/09 00:41:56;;;;;;;4.83;2.73;;;-2.40;99.90;;;;;;5101818;28;20170;-36
2024/01/09 00:44:21;;;;;;;4.30;3.37;;;-2.50;99.90;;;;;;5101869;28;20043;-36
2024/01/09 00:46:47;;;;;;;3.90;2.87;;;-2.50;99.90;;;;;;5100267;28;20150;-35
2024/01/09 00:49:12;;;;;;;4.77;3.20;;;-2.50;99.90;;;;;;5099387;28;20443;-36
2024/01/09 00:51:38;;;;;;;4.50;3.10;;;-2.40;99.90;;;;;;5099611;28;20797;-36
2024/01/09 00:54:04;;;;;;;5.23;3.20;;;-2.50;99.90;;;;;;5099565;28;20035;-37
2024/01/09 00:56:29;;;;;;;3.90;2.97;;;-2.50;99.90;;;;;;5100732;28;20016;-37
2024/01/09 00:58:55;;;;;;;4.57;2.90;;;-2.50;99.90;;;;;;5100541;28;20031;-37
2024/01/09 01:01:20;;;;;;;4.50;3.00;;;-2.50;99.90;;;;;;5102303;28;20676;-36
2024/01/09 01:03:46;;;;;;;3.27;2.50;;;-2.50;99.90;;;;;;5102292;28;20027;-38
2024/01/09 01:06:13;;;;;;;5.93;3.10;;;-2.50;99.90;;;;;;5099367;28;20055;-37
2024/01/09 01:08:38;;;;;;;3.73;2.73;;;-2.50;99.90;;;;;;5101776;28;20712;-37
2024/01/09 01:11:05;;;;;;;5.20;3.17;;;-2.50;99.90;;;;;;5100474;28;20478;-36
2024/01/09 01:13:31;;;;;;;4.03;2.77;;;-2.50;99.90;;;;;;5100498;28;20039;-36
2024/01/09 01:15:57;;;;;;;4.67;3.13;;;-2.60;99.90;;;;;;5099020;28;20024;-37
2024/01/09 01:18:22;;;;;;;4.47;2.87;;;-2.50;99.90;;;;;;5102050;28;20023;-36
2024/01/09 01:20:57;;;;;;;4.13;3.17;;;-2.60;99.90;;;;;;5100408;28;20019;-36
2024/01/09 01:23:22;;;;;;;4.33;3.03;;;-2.60;99.90;;;;;;5101753;28;20922;-35
2024/01/09 01:25:48;;;;;;;3.87;3.00;;;-2.60;99.90;;;;;;5100782;28;20032;-38
2024/01/09 01:28:13;;;;;;;4.30;2.67;;;-2.60;99.90;;;;;;5100398;28;20856;-36
2024/01/09 01:30:39;;;;;;;4.57;3.33;;;-2.60;99.90;;;;;;5100927;28;20049;-35
2024/01/09 01:33:05;;;;;;;4.70;3.10;;;-2.60;99.90;;;;;;5100841;28;20102;-37
2024/01/09 01:35:30;;;;;;;3.90;3.03;;;-2.60;99.90;;;;;;5101395;28;20463;-36
2024/01/09 01:37:56;;;;;;;4.53;3.27;;;-2.60;99.90;;;;;;5100609;28;20380;-36
2024/01/09 01:40:22;;;;;;;3.90;2.67;;;-2.60;99.90;;;;;;5101846;28;20076;-37
2024/01/09 01:42:47;;;;;;;6.33;3.33;;;-2.60;99.90;;;;;;5099496;28;20370;-35
2024/01/09 01:45:21;;;;;;;4.67;3.10;;;-2.60;99.90;;;;;;5100562;28;20454;-36
2024/01/09 01:47:47;;;;;;;4.87;3.17;;;-2.70;99.90;;;;;;5099649;28;20505;-37
2024/01/09 01:50:14;;;;;;;4.77;3.23;;;-2.60;99.90;;;;;;5101414;28;20046;-35
2024/01/09 01:52:41;;;;;;;5.90;3.70;;;-2.70;99.90;;;;;;5100925;28;20617;-35
2024/01/09 01:55:09;;;;;;;5.00;3.20;;;-2.70;99.90;;;;;;5100252;28;20079;-36
2024/01/09 01:57:36;;;;;;;5.17;3.20;;;-2.70;99.90;;;;;;5101657;28;20043;-37
2024/01/09 02:00:03;;;;;;;5.00;3.23;;;-2.70;99.90;;;;;;5101426;28;20525;-37
2024/01/09 02:02:30;;;;;;;4.57;3.30;;;-2.70;99.90;;;;;;5100815;28;20024;-37
2024/01/09 02:04:56;;;;;;;4.50;3.13;;;-2.70;99.90;;;;;;5100565;28;20879;-36
2024/01/09 02:07:23;;;;;;;4.27;3.30;;;-2.70;99.90;;;;;;5100578;28;20108;-36
2024/01/09 02:09:51;;;;;;;4.60;3.27;;;-2.70;99.90;;;;;;5099161;28;20037;-37
2024/01/09 02:12:17;;;;;;;4.67;3.20;;;-2.70;99.90;;;;;;5100214;28;20020;-36
2024/01/09 02:14:43;;;;;;;5.37;3.40;;;-2.80;99.90;;;;;;5099089;28;20029;-37
2024/01/09 02:17:08;;;;;;;4.93;3.27;;;-2.80;99.90;;;;;;5099197;28;20016;-36
2024/01/09 02:19:34;;;;;;;4.10;3.00;;;-2.80;99.90;;;;;;5100880;28;20032;-36
2024/01/09 02:22:00;;;;;;;4.03;3.10;;;-2.80;99.90;;;;;;5099178;28;20028;-37
2024/01/09 02:24:28;;;;;;;5.07;3.80;;;-2.80;99.90;;;;;;5099127;28;20103;-37
2024/01/09 02:27:06;;;;;;;4.60;3.20;;;-2.80;99.90;;;;;;5099314;28;20570;-37
2024/01/09 02:29:33;;;;;;;4.13;3.00;;;-2.80;99.90;;;;;;5100026;28;20070;-37
2024/01/09 02:32:00;;;;;;;5.57;3.60;;;-2.80;99.90;;;;;;5099663;28;20379;-45
2024/01/09 02:34:33;;;;;;;6.07;3.90;;;-2.90;99.90;;;;;;5100787;28;20032;-36
2024/01/09 02:36:59;;;;;;;5.80;3.57;;;-2.90;99.90;;;;;;5098179;28;20040;-37
2024/01/09 02:39:28;;;;;;;4.67;3.37;;;-2.90;99.90;;;;;;5100669;28;20088;-35
2024/01/09 02:41:54;;;;;;;4.77;2.80;;;-2.90;99.90;;;;;;5099738;28;20032;-37
2024/01/09 02:44:20;;;;;;;5.43;3.43;;;-2.90;99.90;;;;;;5099958;28;20353;-37
2024/01/09 02:46:46;;;;;;;5.30;3.00;;;-2.90;99.90;;;;;;5100944;28;20031;-36
2024/01/09 02:49:14;;;;;;;5.53;3.67;;;-2.90;99.90;;;;;;5098320;28;20031;-37
2024/01/09 02:51:40;;;;;;;5.60;3.93;;;-3.00;99.90;;;;;;5098974;28;20091;-37
2024/01/09 02:54:06;;;;;;;6.27;3.70;;;-3.00;99.90;;;;;;5099692;28;20024;-36
2024/01/09 02:56:37;;;;;;;5.47;3.60;;;-3.00;99.90;;;;;;5099644;28;20096;-37
2024/01/09 02:59:03;;;;;;;5.37;4.10;;;-3.00;99.90;;;;;;5098166;28;20038;-36
2024/01/09 03:01:28;;;;;;;5.43;3.60;;;-3.00;99.90;;;;;;5099952;28;20112;-36
2024/01/09 03:03:54;;;;;;;5.83;3.70;;;-3.00;99.90;;;;;;5099698;28;20031;-37
2024/01/09 03:06:20;;;;;;;6.60;3.77;;;-3.00;99.90;;;;;;5098782;28;20054;-37
2024/01/09 03:08:45;;;;;;;6.43;3.70;;;-3.00;99.90;;;;;;5097839;28;20031;-35
2024/01/09 03:11:11;;;;;;;6.10;3.57;;;-3.00;99.90;;;;;;5099188;28;20023;-37
2024/01/09 03:13:38;;;;;;;5.60;3.70;;;-3.10;99.90;;;;;;5098854;28;20122;-38
2024/01/09 03:16:10;;;;;;;4.80;3.67;;;-3.10;99.90;;;;;;5098116;28;20046;-36
2024/01/09 03:18:40;;;;;;;4.80;3.50;;;-3.00;99.90;;;;;;5099887;28;20028;-35
2024/01/09 03:21:06;;;;;;;5.03;3.60;;;-3.10;99.90;;;;;;5096739;28;20066;-37
2024/01/09 03:23:32;;;;;;;6.83;3.90;;;-3.10;99.90;;;;;;5098413;28;20863;-36
2024/01/09 03:25:58;;;;;;;4.77;3.80;;;-3.10;99.90;;;;;;5098495;28;20079;-36
2024/01/09 03:28:25;;;;;;;4.60;3.37;;;-3.10;99.90;;;;;;5098386;28;20032;-38
2024/01/09 03:30:50;;;;;;;5.37;3.67;;;-3.10;99.90;;;;;;5098458;28;20027;-36
2024/01/09 03:33:16;;;;;;;5.23;3.63;;;-3.10;99.90;;;;;;5098500;28;20027;-36
2024/01/09 03:35:41;;;;;;;5.13;2.93;;;-3.10;99.90;;;;;;5098851;28;20020;-37
2024/01/09 03:38:07;;;;;;;5.70;4.07;;;-3.10;99.90;;;;;;5100230;28;20020;-36
2024/01/09 03:40:35;;;;;;;5.00;3.57;;;-3.10;99.90;;;;;;5102325;28;20015;-35
2024/01/09 03:43:01;;;;;;;6.43;3.53;;;-3.10;99.90;;;;;;5103199;28;20031;-36
2024/01/09 03:45:26;;;;;;;5.73;4.07;;;-3.20;99.90;;;;;;5103378;28;20314;-36
2024/01/09 03:47:52;;;;;;;5.23;4.20;;;-3.20;99.90;;;;;;5102590;28;20036;-35
2024/01/09 03:50:18;;;;;;;7.20;3.80;;;-3.20;99.90;;;;;;5102778;28;20061;-35
2024/01/09 03:52:44;;;;;;;5.53;3.70;;;-3.20;99.90;;;;;;5103190;28;20028;-36
2024/01/09 03:55:10;;;;;;;5.00;3.37;;;-3.20;99.90;;;;;;5101956;28;20027;-35
2024/01/09 03:57:35;;;;;;;5.87;4.00;;;-3.20;99.90;;;;;;5103436;28;20495;-37
2024/01/09 04:00:01;;;;;;;5.53;3.67;;;-3.20;99.90;;;;;;5102700;28;20366;-36
2024/01/09 04:02:27;;;;;;;6.33;3.43;;;-3.30;99.90;;;;;;5100335;28;20027;-38
2024/01/09 04:04:52;;;;;;;5.87;4.17;;;-3.20;99.90;;;;;;5102550;28;20046;-36
2024/01/09 04:07:18;;;;;;;9.87;5.57;;;-3.30;99.90;;;;;;5102564;28;20032;-36
2024/01/09 04:09:44;;;;;;;8.10;5.17;;;-3.30;99.90;;;;;;5101784;28;20027;-37
2024/01/09 04:12:10;;;;;;;6.53;4.27;;;-3.30;99.90;;;;;;5101996;28;20028;-39
2024/01/09 04:14:35;;;;;;;6.70;5.03;;;-3.30;99.90;;;;;;5102788;28;20032;-37
2024/01/09 04:17:01;;;;;;;5.40;4.57;;;-3.30;99.90;;;;;;5101528;28;20482;-37
2024/01/09 04:19:27;;;;;;;5.50;4.00;;;-3.30;99.90;;;;;;5102947;28;20023;-36
2024/01/09 04:21:52;;;;;;;6.17;4.10;;;-3.30;99.90;;;;;;5102318;28;20027;-37
2024/01/09 04:24:18;;;;;;;5.20;3.90;;;-3.30;99.90;;;;;;5101651;28;20650;-38
2024/01/09 04:26:43;;;;;;;5.57;3.77;;;-3.30;99.90;;;;;;5102829;28;20032;-36
2024/01/09 04:29:09;;;;;;;5.37;3.70;;;-3.30;99.90;;;;;;5102651;28;20024;-37
2024/01/09 04:31:35;;;;;;;6.90;4.37;;;-3.30;99.90;;;;;;5101829;28;20034;-36
2024/01/09 04:34:00;;;;;;;7.30;4.20;;;-3.30;99.90;;;;;;5101462;28;20055;-36
2024/01/09 04:36:26;;;;;;;6.40;4.20;;;-3.30;99.90;;;;;;5102503;28;20062;-36
2024/01/09 04:38:51;;;;;;;6.83;4.50;;;-3.30;99.90;;;;;;5100746;28;20136;-36
2024/01/09 04:41:18;;;;;;;4.87;3.50;;;-3.30;99.90;;;;;;5102756;28;20030;-43
2024/01/09 04:43:45;;;;;;;5.07;3.80;;;-3.30;99.90;;;;;;5102072;28;20389;-36
2024/01/09 04:46:11;;;;;;;7.37;5.00;;;-3.30;99.90;;;;;;5100965;28;20035;-37
2024/01/09 04:48:36;;;;;;;6.53;4.00;;;-3.30;99.90;;;;;;5102566;28;20370;-38
2024/01/09 04:51:02;;;;;;;7.47;4.77;;;-3.30;99.90;;;;;;5099576;28;20138;-37
2024/01/09 04:53:28;;;;;;;7.47;4.60;;;-3.30;99.90;;;;;;5102170;28;20114;-37
2024/01/09 04:55:53;;;;;;;6.60;4.17;;;-3.30;99.90;;;;;;5101812;28;20477;-46
2024/01/09 04:58:19;;;;;;;6.70;4.67;;;-3.30;99.90;;;;;;5101399;28;20027;-37
2024/01/09 05:00:46;;;;;;;7.57;5.03;;;-3.30;99.90;;;;;;5093258;28;20028;-36
2024/01/09 05:03:12;;;;;;;8.77;5.23;;;-3.30;99.90;;;;;;5090586;28;20105;-35
2024/01/09 05:05:37;;;;;;;7.17;4.93;;;-3.30;99.90;;;;;;5101272;28;20055;-36
2024/01/09 05:08:03;;;;;;;6.83;4.47;;;-3.30;99.90;;;;;;5101204;28;20094;-37
2024/01/09 05:10:31;;;;;;;5.33;3.90;;;-3.40;99.90;;;;;;5101642;28;20114;-44
2024/01/09 05:12:57;;;;;;;8.67;4.60;;;-3.40;99.90;;;;;;5097644;28;20024;-37
2024/01/09 05:15:22;;;;;;;6.00;4.17;;;-3.40;99.90;;;;;;5100707;28;20047;-37
2024/01/09 05:17:48;;;;;;;6.47;4.43;;;-3.40;99.90;;;;;;5101798;28;20043;-36
2024/01/09 05:20:13;;;;;;;7.07;4.83;;;-3.40;99.90;;;;;;5100141;28;20032;-36
2024/01/09 05:22:39;;;;;;;6.53;4.40;;;-3.40;99.90;;;;;;5101166;28;20118;-35
2024/01/09 05:25:06;;;;;;;7.30;4.97;;;-3.40;99.90;;;;;;5100623;28;20028;-37
2024/01/09 05:27:32;;;;;;;7.40;4.30;;;-3.40;99.90;;;;;;5101327;28;20055;-36
2024/01/09 05:29:58;;;;;;;6.57;4.63;;;-3.40;99.90;;;;;;5100732;28;20607;-36
2024/01/09 05:32:24;;;;;;;6.73;4.20;;;-3.40;99.90;;;;;;5097243;28;20039;-38
2024/01/09 05:34:50;;;;;;;5.97;4.03;;;-3.40;99.90;;;;;;5099701;28;20032;-39
2024/01/09 05:37:16;;;;;;;5.27;4.20;;;-3.50;99.90;;;;;;5100984;28;20331;-37
2024/01/09 05:39:46;;;;;;;7.30;4.47;;;-3.50;99.90;;;;;;5101050;28;20046;-37
2024/01/09 05:42:12;;;;;;;8.97;4.30;;;-3.50;99.90;;;;;;5100314;28;20039;-36
2024/01/09 05:44:40;;;;;;;6.33;4.23;;;-3.50;99.90;;;;;;5100733;28;20024;-41
2024/01/09 05:47:06;;;;;;;6.17;4.47;;;-3.50;99.90;;;;;;5098618;28;20546;-36
2024/01/09 05:49:31;;;;;;;6.70;4.67;;;-3.50;99.90;;;;;;5100569;28;20026;-37
2024/01/09 05:51:57;;;;;;;6.03;4.40;;;-3.50;99.90;;;;;;5081535;28;20619;-36
2024/01/09 05:54:23;;;;;;;7.20;4.33;;;-3.50;99.90;;;;;;5100754;28;20418;-38
2024/01/09 05:56:48;;;;;;;8.77;4.80;;;-3.50;99.90;;;;;;5100710;28;20468;-37
2024/01/09 05:59:15;;;;;;;8.63;4.33;;;-3.50;99.90;;;;;;5100310;28;20290;-36
2024/01/09 06:01:40;;;;;;;8.17;4.97;;;-3.60;99.90;;;;;;5100347;28;20049;-37
2024/01/09 06:04:06;;;;;;;7.47;4.43;;;-3.60;99.90;;;;;;5100795;28;20788;-38
2024/01/09 06:06:31;;;;;;;8.13;4.90;;;-3.60;99.90;;;;;;5099865;28;20258;-36
2024/01/09 06:08:57;;;;;;;9.80;5.33;;;-3.60;99.90;;;;;;5099361;28;20031;-37
2024/01/09 06:11:23;;;;;;;6.60;4.57;;;-3.60;99.90;;;;;;5100417;28;20024;-36
2024/01/09 06:13:48;;;;;;;9.07;5.77;;;-3.70;99.90;;;;;;5100820;28;20019;-37
2024/01/09 06:16:14;;;;;;;8.40;5.70;;;-3.70;99.90;;;;;;5098741;28;20157;-38
2024/01/09 06:18:39;;;;;;;9.20;6.37;;;-3.70;99.90;;;;;;5100677;28;20026;-44
2024/01/09 06:21:05;;;;;;;11.77;6.50;;;-3.70;99.90;;;;;;5098374;28;20035;-36
2024/01/09 06:23:31;;;;;;;6.17;4.83;;;-3.70;99.90;;;;;;5099367;28;20198;-37
2024/01/09 06:25:56;;;;;;;7.73;4.73;;;-3.70;99.90;;;;;;5099315;28;20032;-36
2024/01/09 06:28:22;;;;;;;7.93;4.90;;;-3.70;99.90;;;;;;5097605;28;20023;-37
2024/01/09 06:30:47;;;;;;;7.30;5.10;;;-3.70;99.90;;;;;;5093269;28;20027;-37
2024/01/09 06:33:13;;;;;;;7.17;5.13;;;-3.70;99.90;;;;;;5099575;28;20112;-37
2024/01/09 06:35:39;;;;;;;8.67;5.60;;;-3.80;99.90;;;;;;5098217;28;20353;-38
2024/01/09 06:38:04;;;;;;;8.50;5.00;;;-3.80;99.90;;;;;;5099871;28;20131;-38
2024/01/09 06:40:30;;;;;;;7.40;5.13;;;-3.70;99.90;;;;;;5098952;28;20023;-37
2024/01/09 06:42:55;;;;;;;8.73;4.87;;;-3.80;99.90;;;;;;5098932;28;20026;-37
2024/01/09 06:45:21;;;;;;;8.20;5.13;;;-3.80;99.90;;;;;;5098975;28;20788;-37
2024/01/09 06:47:47;;;;;;;9.60;5.37;;;-3.80;99.90;;;;;;5098379;28;20077;-37
2024/01/09 06:50:13;;;;;;;14.40;7.80;;;-3.80;99.90;;;;;;5098044;28;20020;-37
2024/01/09 06:52:39;;;;;;;12.43;7.40;;;-3.80;99.90;;;;;;5098826;28;20446;-37
2024/01/09 06:55:05;;;;;;;9.17;6.43;;;-3.90;99.90;;;;;;5098615;28;20024;-37
2024/01/09 06:57:31;;;;;;;9.23;5.73;;;-3.90;99.90;;;;;;5097331;28;20020;-36
2024/01/09 06:59:58;;;;;;;9.97;6.03;;;-3.90;99.90;;;;;;5098370;28;20019;-36
2024/01/09 07:02:23;;;;;;;8.37;4.80;;;-4.00;99.90;;;;;;5099119;28;20023;-37
2024/01/09 07:04:49;;;;;;;8.40;5.17;;;-4.00;99.90;;;;;;5098911;28;20439;-35
2024/01/09 07:07:15;;;;;;;8.63;5.63;;;-4.00;99.90;;;;;;5097739;28;20584;-36
2024/01/09 07:09:41;;;;;;;8.03;4.87;;;-4.10;99.90;;;;;;5094765;28;20020;-37
2024/01/09 07:12:09;;;;;;;9.03;5.20;;;-4.00;99.90;;;;;;5096265;28;20478;-37
2024/01/09 07:14:36;;;;;;;7.83;5.00;;;-4.10;99.90;;;;;;5097162;28;20028;-41
2024/01/09 07:17:03;;;;;;;8.20;5.50;;;-4.10;99.90;;;;;;5097596;28;20050;-36
2024/01/09 07:19:30;;;;;;;7.67;5.20;;;-4.20;99.90;;;;;;5097059;28;20058;-37
2024/01/09 07:21:56;;;;;;;9.73;5.70;;;-4.20;99.90;;;;;;5097353;28;20136;-37
2024/01/09 07:24:23;;;;;;;8.73;5.87;;;-4.20;99.90;;;;;;5096915;28;20081;-36
2024/01/09 07:26:49;;;;;;;7.97;5.30;;;-4.20;99.90;;;;;;5096907;28;20124;-38
2024/01/09 07:29:17;;;;;;;7.67;5.40;;;-4.20;99.90;;;;;;5097780;28;20757;-36
2024/01/09 07:31:43;;;;;;;6.80;5.13;;;-4.20;99.90;;;;;;5100318;28;20047;-37
2024/01/09 07:34:09;;;;;;;9.57;5.57;;;-4.30;99.90;;;;;;5098517;28;20027;-37
2024/01/09 07:36:35;;;;;;;8.83;5.57;;;-4.30;99.90;;;;;;5099804;28;20043;-38
2024/01/09 07:39:00;;;;;;;8.10;5.00;;;-4.30;99.90;;;;;;5098947;28;20031;-41
2024/01/09 07:41:26;;;;;;;7.63;5.20;;;-4.30;99.90;;;;;;5099526;28;20031;-37
2024/01/09 07:43:53;;;;;;;7.87;5.33;;;-4.20;99.90;;;;;;5098229;28;20110;-36
2024/01/09 07:46:19;;;;;;;7.40;5.07;;;-4.30;99.90;;;;;;5098009;28;20511;-36
2024/01/09 07:48:45;;;;;;;14.67;5.23;;;-4.30;99.90;;;;;;5097918;28;20028;-37
2024/01/09 07:51:12;;;;;;;9.00;5.33;;;-4.30;99.90;;;;;;5097637;28;20105;-36
2024/01/09 07:53:39;;;;;;;9.27;5.10;;;-4.30;99.90;;;;;;5096892;28;20030;-36
2024/01/09 07:56:16;;;;;;;8.63;4.97;;;-4.30;99.90;;;;;;5097751;28;20135;-37
2024/01/09 07:58:42;;;;;;;8.07;4.80;;;-4.20;99.90;;;;;;5095310;28;20027;-36
2024/01/09 08:01:08;;;;;;;8.53;5.00;;;-4.20;99.90;;;;;;5097269;28;20027;-36
2024/01/09 08:03:34;;;;;;;11.00;5.10;;;-4.20;99.90;;;;;;5099284;28;20358;-41
2024/01/09 08:05:59;;;;;;;8.97;5.97;;;-4.20;99.90;;;;;;5098183;28;20517;-41
2024/01/09 08:08:25;;;;;;;8.00;5.07;;;-4.20;99.90;;;;;;5099153;28;20027;-36
2024/01/09 08:10:51;;;;;;;8.63;5.33;;;-4.10;99.90;;;;;;5098907;28;20879;-37
2024/01/09 08:13:16;;;;;;;9.37;5.40;;;-4.10;99.90;;;;;;5098564;28;20511;-36
2024/01/09 08:15:42;;;;;;;9.53;5.33;;;-4.00;99.90;;;;;;5098300;28;20038;-37
2024/01/09 08:18:08;;;;;;;7.40;5.10;;;-4.00;99.90;;;;;;5098269;28;20484;-36
2024/01/09 08:20:34;;;;;;;8.23;4.90;;;-4.00;99.90;;;;;;5098190;28;20127;-35
2024/01/09 08:22:59;;;;;;;6.63;4.77;;;-3.90;99.90;;;;;;5098274;28;20028;-37
2024/01/09 08:25:28;;;;;;;8.03;4.80;;;-3.90;99.90;;;;;;5099966;28;20058;-37
2024/01/09 08:27:54;;;;;;;8.20;5.00;;;-3.90;99.90;;;;;;5102204;28;20070;-35
2024/01/09 08:30:19;;;;;;;8.10;4.87;;;-3.80;99.90;;;;;;5101548;28;20463;-36
2024/01/09 08:32:45;;;;;;;8.33;5.10;;;-3.80;99.90;;;;;;5102148;28;20023;-38
2024/01/09 08:35:11;;;;;;;6.30;3.70;;;-3.80;99.70;;;;;;5099559;28;20028;-42
2024/01/09 08:37:36;;;;;;;7.67;5.23;;;-3.70;99.80;;;;;;5101032;28;20027;-36
2024/01/09 08:40:02;;;;;;;7.70;4.37;;;-3.70;99.70;;;;;;5101600;28;20047;-35
2024/01/09 08:42:28;;;;;;;7.87;4.80;;;-3.60;99.60;;;;;;5102253;28;20085;-35
2024/01/09 08:44:53;;;;;;;7.37;4.53;;;-3.60;99.60;;;;;;5101886;28;20267;-38
2024/01/09 08:47:19;;;;;;;7.50;4.40;;;-3.60;99.50;;;;;;5102240;28;20855;-35
2024/01/09 08:49:45;;;;;;;6.40;4.70;;;-3.50;99.30;;;;;;5101842;28;20028;-36
2024/01/09 08:52:11;;;;;;;6.33;4.37;;;-3.50;99.10;;;;;;5101242;28;20026;-38
2024/01/09 08:54:36;;;;;;;6.27;4.30;;;-3.40;99.10;;;;;;5102259;28;20026;-36
2024/01/09 08:57:02;;;;;;;6.33;4.37;;;-3.40;99.30;;;;;;5099771;28;20043;-35
2024/01/09 08:59:28;;;;;;;7.67;5.03;;;-3.40;99.30;;;;;;5102447;28;20019;-39
2024/01/09 09:01:53;;;;;;;6.33;4.30;;;-3.40;99.00;;;;;;5102086;28;20020;-37
2024/01/09 09:04:19;;;;;;;6.90;5.13;;;-3.40;98.90;;;;;;5101024;28;20027;-38
2024/01/09 09:06:46;;;;;;;5.27;3.93;;;-3.30;98.80;;;;;;5101875;28;20121;-36
2024/01/09 09:09:11;;;;;;;6.27;4.00;;;-3.30;99.10;;;;;;5101750;28;20039;-36
2024/01/09 09:11:38;;;;;;;5.93;3.93;;;-3.30;99.10;;;;;;5101607;28;20028;-36
2024/01/09 09:14:04;;;;;;;7.00;4.10;;;-3.30;99.10;;;;;;5099440;28;20993;-36
2024/01/09 09:16:30;;;;;;;7.00;3.93;;;-3.20;98.90;;;;;;5102321;28;20012;-37
2024/01/09 09:18:55;;;;;;;7.40;4.87;;;-3.20;99.10;;;;;;5102675;28;20353;-38
2024/01/09 09:21:21;;;;;;;4.73;3.63;;;-3.10;98.70;;;;;;5102112;28;20143;-37
2024/01/09 09:23:47;;;;;;;5.30;3.77;;;-3.10;98.40;;;;;;5102114;28;20024;-35
2024/01/09 09:26:13;;;;;;;6.33;3.93;;;-3.00;98.20;;;;;;5099945;28;20766;-36
2024/01/09 09:28:40;;;;;;;5.97;4.43;;;-3.00;98.00;;;;;;5100456;28;20032;-37
2024/01/09 09:31:06;;;;;;;7.67;3.57;;;-3.00;97.90;;;;;;5100955;28;20034;-37
2024/01/09 09:33:33;;;;;;;5.87;3.90;;;-2.90;97.70;;;;;;5101307;28;20028;-36
2024/01/09 09:36:06;;;;;;;6.43;4.03;;;-2.80;97.60;;;;;;5100526;28;20102;-36
2024/01/09 09:38:33;;;;;;;5.97;4.40;;;-2.80;97.20;;;;;;5100730;28;20534;-36
2024/01/09 09:41:05;;;;;;;5.87;3.80;;;-2.80;97.30;;;;;;5100065;28;20034;-37
2024/01/09 09:43:34;;;;;;;6.83;3.80;;;-2.70;97.00;;;;;;5100582;28;20031;-37
2024/01/09 09:46:02;;;;;;;5.00;4.20;;;-2.70;97.00;;;;;;5100296;28;20070;-37
2024/01/09 09:48:28;;;;;;;6.27;4.83;;;-2.70;96.90;;;;;;5101653;28;20039;-37
2024/01/09 09:50:55;;;;;;;5.93;4.13;;;-2.70;96.90;;;;;;5100720;28;20015;-36
2024/01/09 09:53:22;;;;;;;5.63;3.50;;;-2.70;97.30;;;;;;5100948;28;20130;-36
2024/01/09 09:55:48;;;;;;;6.57;4.50;;;-2.70;97.40;;;;;;5101453;28;20062;-36
2024/01/09 09:58:14;;;;;;;6.83;4.60;;;-2.70;97.00;;;;;;5099920;28;20548;-37
2024/01/09 10:00:40;;;;;;;7.80;4.60;;;-2.70;97.20;;;;;;5100090;28;20106;-39
2024/01/09 10:03:08;;;;;;;4.93;4.03;;;-2.70;97.00;;;;;;5100637;28;20020;-40
2024/01/09 10:05:40;;;;;;;6.97;4.50;;;-2.70;97.00;;;;;;5101263;28;20047;-39
2024/01/09 10:08:09;;;;;;;8.65;4.25;;;-2.70;96.90;;;;;;5099843;28;20065;-37
2024/01/09 10:10:36;;;;;;;6.70;4.30;;;-2.70;96.80;;;;;;5101117;28;20381;-38
2024/01/09 10:13:02;;;;;;;6.50;4.20;;;-2.60;96.50;;;;;;5099996;28;21270;-37
2024/01/09 10:15:28;;;;;;;6.37;4.20;;;-2.60;96.00;;;;;;5099866;28;20029;-37
2024/01/09 10:17:54;;;;;;;5.77;4.20;;;-2.50;95.80;;;;;;5100616;28;20481;-36
2024/01/09 10:20:20;;;;;;;5.57;3.60;;;-2.50;95.00;;;;;;5099944;28;20019;-37
2024/01/09 10:22:46;;;;;;;6.63;4.00;;;-2.50;94.90;;;;;;5099989;28;20055;-37
2024/01/09 10:25:12;;;;;;;7.00;4.33;;;-2.40;94.90;;;;;;5100352;28;20066;-36
2024/01/09 10:27:39;;;;;;;5.63;3.50;;;-2.30;95.10;;;;;;5100152;28;20035;-36
2024/01/09 10:30:10;;;;;;;5.13;3.93;;;-2.30;95.10;;;;;;5098821;28;20043;-37
2024/01/09 10:32:37;;;;;;;6.07;4.17;;;-2.20;94.50;;;;;;5100531;28;20215;-37
2024/01/09 10:35:03;;;;;;;5.17;3.80;;;-2.20;94.50;;;;;;5099045;28;20088;-37
2024/01/09 10:37:33;;;;;;;7.10;4.53;;;-2.20;94.40;;;;;;5099517;28;20051;-37
2024/01/09 10:39:59;;;;;;;7.13;4.73;;;-2.10;93.40;;;;;;5100528;28;20047;-36
2024/01/09 10:42:25;;;;;;;7.67;4.47;;;-2.10;93.70;;;;;;5098912;28;20062;-36
2024/01/09 10:44:51;;;;;;;5.77;3.93;;;-2.00;93.30;;;;;;5099319;28;20113;-36
2024/01/09 10:47:18;;;;;;;6.97;4.50;;;-2.00;93.40;;;;;;5099396;28;20806;-37
2024/01/09 10:49:45;;;;;;;6.93;4.13;;;-2.00;93.10;;;;;;5099067;28;20023;-39
2024/01/09 10:52:16;;;;;;;6.10;3.80;;;-2.00;93.30;;;;;;5099749;28;20027;-36
2024/01/09 10:54:45;;;;;;;7.30;4.20;;;-1.90;93.20;;;;;;5099850;28;20409;-36
2024/01/09 10:57:17;;;;;;;6.87;4.07;;;-1.90;93.00;;;;;;5098571;28;20040;-37
2024/01/09 10:59:46;;;;;;;7.30;4.28;;;-1.90;92.70;;;;;;5099601;28;20045;-36
2024/01/09 11:02:17;;;;;;;6.27;3.80;;;-1.80;92.50;;;;;;5097673;28;20247;-36
2024/01/09 11:04:44;;;;;;;6.20;4.20;;;-1.80;92.60;;;;;;5097809;28;20023;-37
2024/01/09 11:07:15;;;;;;;6.73;3.67;;;-1.80;92.20;;;;;;5057324;28;20600;-36
2024/01/09 11:09:47;;;;;;;6.13;3.83;;;-1.70;91.60;;;;;;5058079;28;20029;-37
2024/01/09 11:12:34;;;;;;;7.25;4.22;;;-1.70;92.00;;;;;;5056798;28;20024;-35
2024/01/09 11:15:15;;;;;;;6.17;4.10;;;-1.60;91.70;;;;;;5057857;28;20039;-36
2024/01/09 11:17:45;;;;;;;7.47;3.80;;;-1.60;91.10;;;;;;5048013;28;20028;-36
2024/01/09 11:20:14;;;;;;;5.40;3.70;;;-1.60;91.40;;;;;;5058577;28;20026;-37
2024/01/09 11:22:41;;;;;;;5.47;3.30;;;-1.50;91.40;;;;;;5059319;28;20054;-43
2024/01/09 11:25:20;;;;;;;6.40;3.50;;;-1.50;91.50;;;;;;5057346;28;20032;-35
2024/01/09 11:27:51;;;;;;;5.43;3.40;;;-1.40;91.20;;;;;;5059323;28;20039;-36
2024/01/09 11:30:21;;;;;;;6.67;4.03;;;-1.40;90.80;;;;;;5058504;28;20107;-36
2024/01/09 11:32:47;;;;;;;4.50;3.27;;;-1.30;90.90;;;;;;5055983;28;20171;-38
2024/01/09 11:35:15;;;;;;;6.57;3.47;;;-1.30;91.10;;;;;;5057515;28;20032;-37
2024/01/09 11:37:46;;;;;;;5.43;3.70;;;-1.20;91.10;;;;;;5058878;28;20036;-35
2024/01/09 11:40:13;;;;;;;5.43;3.93;;;-1.10;91.10;;;;;;5058055;28;20025;-36
2024/01/09 11:42:43;;;;;;;6.47;3.80;;;-1.10;90.80;;;;;;5058209;28;20048;-36
2024/01/09 11:45:09;;;;;;;4.17;3.27;;;-1.10;90.20;;;;;;5058572;28;20033;-35
2024/01/09 11:47:44;;;;;;;6.50;3.83;;;-1.00;90.40;;;;;;5058410;28;20540;-36
2024/01/09 11:50:11;;;;;;;5.87;3.60;;;-1.00;90.70;;;;;;5037950;28;20437;-35
2024/01/09 11:52:39;;;;;;;3.83;3.20;;;-0.90;90.70;;;;;;5053655;28;20028;-36
2024/01/09 11:55:07;;;;;;;4.53;3.00;;;-0.90;90.90;;;;;;5058846;28;20111;-36
2024/01/09 11:57:34;;;;;;;4.13;3.30;;;-0.80;91.00;;;;;;5062721;28;20035;-35
2024/01/09 12:00:05;;;;;;;4.57;3.13;;;-0.80;91.00;;;;;;5059290;28;20384;-36
2024/01/09 12:02:31;;;;;;;4.87;3.17;;;-0.70;90.90;;;;;;5062908;28;20028;-35
2024/01/09 12:04:57;;;;;;;6.50;3.97;;;-0.70;90.80;;;;;;5064961;28;20021;-36
2024/01/09 12:07:23;;;;;;;5.47;3.60;;;-0.70;90.60;;;;;;5102547;28;20032;-36
2024/01/09 12:09:49;;;;;;;6.40;3.73;;;-0.60;90.90;;;;;;5103640;28;20034;-35
2024/01/09 12:12:23;;;;;;;6.37;3.77;;;-0.60;90.80;;;;;;5102143;28;20406;-36
2024/01/09 12:14:56;;;;;;;7.70;3.67;;;-0.60;90.50;;;;;;5103055;28;20103;-35
2024/01/09 12:17:23;;;;;;;4.63;3.13;;;-0.50;90.60;;;;;;5102426;28;20077;-35
2024/01/09 12:19:52;;;;;;;5.60;3.50;;;-0.50;90.10;;;;;;5102882;28;20034;-44
2024/01/09 12:22:19;;;;;;;4.93;3.43;;;-0.50;89.50;;;;;;5101780;28;20020;-37
2024/01/09 12:24:46;;;;;;;5.07;3.60;;;-0.40;89.30;;;;;;5102076;28;20504;-38
2024/01/09 12:27:12;;;;;;;4.78;3.30;;;-0.40;88.90;;;;;;5102267;28;20039;-36
2024/01/09 12:29:42;;;;;;;4.57;2.97;;;-0.40;89.10;;;;;;5101297;28;21147;-37
2024/01/09 12:32:15;;;;;;;4.53;3.33;;;-0.30;87.00;;;;;;5103451;28;20028;-37
2024/01/09 12:34:41;;;;;;;5.03;3.33;;;-0.30;86.50;;;;;;5102608;28;20424;-36
2024/01/09 12:37:09;;;;;;;5.53;2.97;;;-0.30;85.20;;;;;;5101996;28;20038;-36
2024/01/09 12:39:36;;;;;;;4.93;3.38;;;-0.20;85.50;;;;;;5083585;28;20024;-37
2024/01/09 12:42:16;;;;;;;4.20;3.22;;;-0.20;84.20;;;;;;5100803;28;20942;-37